createdAt,value
2018-09-12T00:00:39.195Z,16.80
2018-09-12T00:03:07.822Z,16.80
2018-09-12T00:05:36.350Z,16.80
2018-09-12T00:08:05.973Z,16.80
2018-09-12T00:10:34.451Z,16.90
2018-09-12T00:13:03.738Z,16.90
2018-09-12T00:15:33.033Z,17.00
2018-09-12T00:18:01.578Z,17.00
2018-09-12T00:20:30.194Z,17.10
2018-09-12T00:22:59.253Z,17.10
2018-09-12T00:25:28.489Z,17.10
2018-09-12T00:27:56.949Z,17.10
2018-09-12T00:30:26.036Z,17.00
2018-09-12T00:32:54.773Z,17.00
2018-09-12T00:35:23.319Z,17.00
2018-09-12T00:37:52.134Z,16.90
2018-09-12T00:40:20.698Z,17.00
2018-09-12T00:42:49.200Z,17.00
2018-09-12T00:45:17.769Z,17.00
2018-09-12T00:47:46.263Z,17.00
2018-09-12T00:50:14.902Z,16.90
2018-09-12T00:52:43.368Z,16.90
2018-09-12T00:55:12.110Z,16.90
2018-09-12T00:57:40.679Z,16.90
2018-09-12T01:00:09.214Z,16.90
2018-09-12T01:02:37.852Z,16.90
2018-09-12T01:05:06.478Z,16.90
2018-09-12T01:07:35.000Z,16.90
2018-09-12T01:10:03.540Z,16.90
2018-09-12T01:12:32.082Z,16.90
2018-09-12T01:15:00.552Z,16.90
2018-09-12T01:17:29.184Z,16.90
2018-09-12T01:19:57.646Z,16.90
2018-09-12T01:22:26.275Z,17.00
2018-09-12T01:24:54.746Z,17.00
2018-09-12T01:27:23.371Z,17.00
2018-09-12T01:29:51.919Z,17.00
2018-09-12T01:32:20.361Z,17.00
2018-09-12T01:34:49.486Z,17.00
2018-09-12T01:37:17.970Z,17.00
2018-09-12T01:39:46.653Z,16.90
2018-09-12T01:42:15.154Z,16.80
2018-09-12T01:44:43.724Z,16.80
2018-09-12T01:47:12.186Z,16.80
2018-09-12T01:49:40.846Z,16.80
2018-09-12T01:52:09.448Z,16.80
2018-09-12T01:54:38.079Z,16.90
2018-09-12T01:57:06.466Z,16.90
2018-09-12T01:59:34.980Z,16.90
2018-09-12T02:02:03.612Z,16.90
2018-09-12T02:04:32.081Z,16.90
2018-09-12T02:07:00.743Z,16.90
2018-09-12T02:09:29.265Z,16.90
2018-09-12T02:11:57.856Z,16.90
2018-09-12T02:14:26.494Z,16.90
2018-09-12T02:16:55.123Z,16.80
2018-09-12T02:19:24.847Z,16.80
2018-09-12T02:21:53.914Z,16.80
2018-09-12T02:24:22.449Z,16.80
2018-09-12T02:26:51.154Z,16.70
2018-09-12T02:29:20.875Z,16.80
2018-09-12T02:31:49.397Z,16.70
2018-09-12T02:34:18.001Z,16.80
2018-09-12T02:36:46.531Z,16.80
2018-09-12T02:39:15.024Z,16.80
2018-09-12T02:41:43.688Z,16.80
2018-09-12T02:44:12.246Z,16.70
2018-09-12T02:46:41.326Z,16.70
2018-09-12T02:49:10.558Z,16.60
2018-09-12T02:51:39.131Z,16.60
2018-09-12T02:54:07.716Z,16.60
2018-09-12T02:56:37.179Z,16.60
2018-09-12T02:59:05.677Z,16.60
2018-09-12T03:01:34.225Z,16.60
2018-09-12T03:04:03.624Z,16.60
2018-09-12T03:06:32.307Z,16.60
2018-09-12T03:09:00.865Z,16.50
2018-09-12T03:11:29.875Z,16.60
2018-09-12T03:13:58.358Z,16.50
2018-09-12T03:16:26.845Z,16.50
2018-09-12T03:18:55.434Z,16.50
2018-09-12T03:21:23.958Z,16.50
2018-09-12T03:23:52.591Z,16.50
2018-09-12T03:26:21.285Z,16.50
2018-09-12T03:28:50.257Z,16.50
2018-09-12T03:31:18.922Z,16.50
2018-09-12T03:33:47.550Z,16.50
2018-09-12T03:36:16.205Z,16.50
2018-09-12T03:38:44.681Z,16.50
2018-09-12T03:41:13.203Z,16.40
2018-09-12T03:43:41.749Z,16.40
2018-09-12T03:46:10.337Z,16.40
2018-09-12T03:48:38.876Z,16.40
2018-09-12T03:51:07.482Z,16.40
2018-09-12T03:53:36.360Z,16.40
2018-09-12T03:56:04.870Z,16.30
2018-09-12T03:58:33.388Z,16.40
2018-09-12T04:01:02.579Z,16.30
2018-09-12T04:03:31.354Z,16.30
2018-09-12T04:05:59.958Z,16.30
2018-09-12T04:08:28.487Z,16.30
2018-09-12T04:10:57.065Z,16.20
2018-09-12T04:13:25.600Z,16.20
2018-09-12T04:15:54.127Z,16.20
2018-09-12T04:18:22.718Z,16.20
2018-09-12T04:20:51.193Z,16.10
2018-09-12T04:23:19.880Z,16.00
2018-09-12T04:25:48.481Z,16.00
2018-09-12T04:28:17.139Z,16.00
2018-09-12T04:30:45.759Z,15.90
2018-09-12T04:33:14.406Z,15.90
2018-09-12T04:35:43.057Z,15.80
2018-09-12T04:38:11.913Z,15.80
2018-09-12T04:40:40.628Z,15.80
2018-09-12T04:43:09.252Z,15.80
2018-09-12T04:45:37.752Z,15.70
2018-09-12T04:48:06.397Z,15.70
2018-09-12T04:50:34.887Z,15.60
2018-09-12T04:53:03.612Z,15.70
2018-09-12T04:55:32.076Z,15.60
2018-09-12T04:58:07.272Z,15.50
2018-09-12T05:00:35.753Z,15.50
2018-09-12T05:03:04.213Z,15.60
2018-09-12T05:05:33.609Z,15.60
2018-09-12T05:08:02.168Z,15.60
2018-09-12T05:10:30.735Z,15.70
2018-09-12T05:12:59.237Z,15.60
2018-09-12T05:15:28.091Z,15.70
2018-09-12T05:17:56.623Z,15.70
2018-09-12T05:20:25.104Z,15.70
2018-09-12T05:22:53.821Z,15.70
2018-09-12T05:25:22.546Z,15.70
2018-09-12T05:27:51.097Z,15.70
2018-09-12T05:30:19.793Z,15.70
2018-09-12T05:32:49.292Z,15.60
2018-09-12T05:35:17.784Z,15.60
2018-09-12T05:37:46.357Z,15.70
2018-09-12T05:40:14.854Z,15.70
2018-09-12T05:42:44.364Z,15.70
2018-09-12T05:45:12.844Z,15.80
2018-09-12T05:47:41.443Z,15.90
2018-09-12T05:50:10.082Z,16.00
2018-09-12T05:52:38.541Z,16.10
2018-09-12T05:55:07.095Z,16.10
2018-09-12T05:57:35.898Z,16.20
2018-09-12T06:00:04.872Z,16.30
2018-09-12T06:02:33.318Z,16.40
2018-09-12T06:05:02.355Z,16.50
2018-09-12T06:07:30.849Z,16.50
2018-09-12T06:10:00.494Z,16.70
2018-09-12T06:12:29.230Z,16.80
2018-09-12T06:14:57.783Z,16.90
2018-09-12T06:17:26.809Z,17.00
2018-09-12T06:19:55.260Z,17.00
2018-09-12T06:22:24.473Z,17.10
2018-09-12T06:24:53.633Z,17.20
2018-09-12T06:27:22.212Z,17.20
2018-09-12T06:29:50.768Z,17.40
2018-09-12T06:32:19.237Z,17.40
2018-09-12T06:34:48.007Z,17.50
2018-09-12T06:37:16.545Z,17.60
2018-09-12T06:39:45.696Z,17.60
2018-09-12T06:42:14.214Z,17.70
2018-09-12T06:44:42.723Z,17.80
2018-09-12T06:47:11.352Z,17.90
2018-09-12T06:49:40.438Z,17.90
2018-09-12T06:52:09.029Z,17.90
2018-09-12T06:54:37.639Z,18.00
2018-09-12T06:57:06.241Z,18.10
2018-09-12T06:59:34.810Z,18.10
2018-09-12T07:02:03.427Z,18.20
2018-09-12T07:04:32.010Z,18.30
2018-09-12T07:07:00.766Z,18.50
2018-09-12T07:09:29.272Z,18.60
2018-09-12T07:11:57.908Z,18.80
2018-09-12T07:14:26.404Z,18.90
2018-09-12T07:16:55.048Z,19.10
2018-09-12T07:19:23.891Z,19.20
2018-09-12T07:21:53.252Z,19.40
2018-09-12T07:24:21.932Z,19.60
2018-09-12T07:26:50.445Z,19.80
2018-09-12T07:29:19.122Z,20.00
2018-09-12T07:31:48.617Z,20.20
2018-09-12T07:34:17.369Z,20.40
2018-09-12T07:36:46.309Z,20.60
2018-09-12T07:39:15.125Z,20.70
2018-09-12T07:41:44.257Z,21.00
2018-09-12T07:44:13.588Z,21.20
2018-09-12T07:46:42.152Z,21.50
2018-09-12T07:49:10.933Z,21.60
2018-09-12T07:51:40.043Z,21.80
2018-09-12T07:54:09.252Z,21.90
2018-09-12T07:56:37.968Z,22.10
2018-09-12T07:59:06.568Z,22.50
2018-09-12T08:01:35.716Z,22.80
2018-09-12T08:04:04.837Z,23.10
2018-09-12T08:06:34.319Z,23.20
2018-09-12T08:09:03.080Z,23.60
2018-09-12T08:11:32.773Z,23.80
2018-09-12T08:14:02.117Z,24.20
2018-09-12T08:16:31.145Z,24.40
2018-09-12T08:18:59.975Z,24.50
2018-09-12T08:21:28.455Z,24.70
2018-09-12T08:23:57.330Z,24.90
2018-09-12T08:26:25.982Z,25.00
2018-09-12T08:28:54.546Z,25.30
2018-09-12T08:31:23.151Z,25.30
2018-09-12T08:33:52.674Z,25.60
2018-09-12T08:36:21.272Z,25.60
2018-09-12T08:38:50.039Z,25.80
2018-09-12T08:41:18.724Z,26.00
2018-09-12T08:43:48.006Z,26.30
2018-09-12T08:46:16.946Z,26.60
2018-09-12T08:48:45.630Z,26.80
2018-09-12T08:51:14.385Z,26.90
2018-09-12T08:53:43.005Z,26.90
2018-09-12T08:56:11.741Z,27.20
2018-09-12T08:58:40.462Z,27.30
2018-09-12T09:01:09.354Z,27.40
2018-09-12T09:03:38.003Z,27.60
2018-09-12T09:06:07.648Z,27.80
2018-09-12T09:08:36.522Z,28.00
2018-09-12T09:11:06.162Z,28.20
2018-09-12T09:13:35.028Z,28.30
2018-09-12T09:16:03.601Z,28.50
2018-09-12T09:18:33.189Z,28.70
2018-09-12T09:21:01.990Z,28.70
2018-09-12T09:23:30.811Z,28.80
2018-09-12T09:26:00.435Z,29.00
2018-09-12T09:28:29.095Z,29.10
2018-09-12T09:30:58.545Z,29.30
2018-09-12T09:33:27.236Z,29.40
2018-09-12T09:35:56.657Z,29.40
2018-09-12T09:38:25.221Z,29.40
2018-09-12T09:40:53.843Z,29.50
2018-09-12T09:43:22.610Z,29.70
2018-09-12T09:45:51.609Z,29.80
2018-09-12T09:48:20.480Z,29.90
2018-09-12T09:50:49.025Z,30.10
2018-09-12T09:53:17.626Z,30.10
2018-09-12T09:55:46.198Z,30.20
2018-09-12T09:58:15.129Z,30.30
2018-09-12T10:00:48.947Z,30.30
2018-09-12T10:03:22.877Z,30.50
2018-09-12T10:05:56.937Z,30.40
2018-09-12T10:11:48.050Z,30.70
2018-09-12T10:14:16.782Z,30.90
2018-09-12T10:16:45.470Z,30.80
2018-09-12T10:19:14.852Z,30.80
2018-09-12T10:21:43.397Z,30.30
2018-09-12T10:24:12.755Z,30.40
2018-09-12T10:26:41.677Z,30.00
2018-09-12T10:29:10.292Z,30.20
2018-09-12T10:31:39.421Z,30.40
2018-09-12T10:34:09.514Z,30.60
2018-09-12T10:36:38.430Z,30.40
2018-09-12T10:39:10.660Z,30.40
2018-09-12T10:41:39.293Z,30.50
2018-09-12T10:44:08.135Z,30.70
2018-09-12T10:46:37.032Z,30.90
2018-09-12T10:49:06.717Z,31.10
2018-09-12T10:51:35.389Z,30.80
2018-09-12T10:54:04.248Z,30.50
2018-09-12T10:56:33.869Z,30.50
2018-09-12T10:59:02.978Z,30.30
2018-09-12T11:01:31.545Z,30.20
2018-09-12T11:04:00.438Z,30.50
2018-09-12T11:06:29.143Z,30.80
2018-09-12T11:08:58.213Z,31.10
2018-09-12T11:11:26.814Z,31.20
2018-09-12T11:13:57.064Z,31.30
2018-09-12T11:16:25.624Z,31.60
2018-09-12T11:18:54.603Z,31.50
2018-09-12T11:21:24.010Z,31.80
2018-09-12T11:23:53.240Z,31.60
2018-09-12T11:26:22.603Z,31.30
2018-09-12T11:28:51.574Z,31.40
2018-09-12T11:31:20.198Z,31.70
2018-09-12T11:33:48.772Z,31.90
2018-09-12T11:36:17.879Z,32.10
2018-09-12T11:38:47.032Z,32.30
2018-09-12T11:41:16.228Z,32.30
2018-09-12T11:43:45.646Z,32.50
2018-09-12T11:46:14.219Z,32.40
2018-09-12T11:48:42.825Z,32.70
2018-09-12T11:51:11.646Z,32.50
2018-09-12T11:53:40.201Z,32.40
2018-09-12T11:56:09.798Z,32.30
2018-09-12T11:58:40.627Z,32.40
2018-09-12T12:01:09.830Z,32.50
2018-09-12T12:03:39.045Z,32.70
2018-09-12T12:06:07.812Z,32.70
2018-09-12T12:08:36.561Z,32.40
2018-09-12T12:11:11.848Z,32.60
2018-09-12T12:13:41.360Z,32.40
2018-09-12T12:16:10.577Z,32.60
2018-09-12T12:18:39.501Z,32.70
2018-09-12T12:21:08.035Z,32.60
2018-09-12T12:23:37.556Z,32.60
2018-09-12T12:26:06.644Z,32.60
2018-09-12T12:28:35.749Z,32.20
2018-09-12T12:31:04.265Z,32.20
2018-09-12T12:33:33.185Z,32.50
2018-09-12T12:36:27.391Z,32.30
2018-09-12T12:41:45.846Z,32.20
2018-09-12T12:44:17.720Z,32.40
2018-09-12T12:46:51.100Z,32.70
2018-09-12T12:49:19.858Z,32.70
2018-09-12T12:51:48.620Z,32.80
2018-09-12T12:54:17.678Z,32.80
2018-09-12T12:56:46.114Z,32.70
2018-09-12T12:59:15.413Z,32.70
2018-09-12T13:01:44.486Z,32.20
2018-09-12T13:04:13.553Z,32.50
2018-09-12T13:06:42.135Z,32.60
2018-09-12T13:09:10.846Z,32.70
2018-09-12T13:11:39.590Z,32.70
2018-09-12T13:14:09.087Z,32.10
2018-09-12T13:16:38.204Z,31.90
2018-09-12T13:19:07.129Z,31.60
2018-09-12T13:21:35.997Z,31.90
2018-09-12T13:24:05.306Z,32.10
2018-09-12T13:26:34.647Z,32.00
2018-09-12T13:29:03.481Z,31.50
2018-09-12T13:31:32.257Z,31.80
2018-09-12T13:34:01.088Z,31.90
2018-09-12T13:36:29.752Z,31.90
2018-09-12T13:38:58.552Z,31.90
2018-09-12T13:41:27.182Z,32.00
2018-09-12T13:43:55.989Z,31.90
2018-09-12T13:46:24.751Z,31.90
2018-09-12T13:48:54.154Z,31.90
2018-09-12T13:51:23.555Z,31.90
2018-09-12T13:53:52.002Z,32.00
2018-09-12T13:56:20.522Z,32.00
2018-09-12T13:58:49.181Z,31.90
2018-09-12T14:01:17.685Z,31.70
2018-09-12T14:03:46.661Z,31.60
2018-09-12T14:06:15.336Z,31.60
2018-09-12T14:08:44.836Z,31.70
2018-09-12T14:11:13.830Z,31.70
2018-09-12T14:13:42.771Z,31.60
2018-09-12T14:16:11.348Z,31.60
2018-09-12T14:18:40.140Z,31.50
2018-09-12T14:21:09.046Z,31.50
2018-09-12T14:23:38.183Z,31.50
2018-09-12T14:26:06.855Z,31.50
2018-09-12T14:28:36.242Z,31.30
2018-09-12T14:31:05.051Z,31.30
2018-09-12T14:33:33.733Z,31.30
2018-09-12T14:36:02.288Z,31.00
2018-09-12T14:38:31.232Z,31.00
2018-09-12T14:41:00.591Z,31.20
2018-09-12T14:43:30.861Z,31.20
2018-09-12T14:45:59.468Z,31.20
2018-09-12T14:48:28.790Z,31.00
2018-09-12T14:50:57.706Z,31.10
2018-09-12T14:53:26.545Z,31.00
2018-09-12T14:55:55.293Z,31.00
2018-09-12T14:58:24.669Z,30.90
2018-09-12T15:00:54.193Z,31.00
2018-09-12T15:03:23.196Z,31.00
2018-09-12T15:05:52.508Z,31.10
2018-09-12T15:08:22.133Z,31.00
2018-09-12T15:10:51.484Z,30.90
2018-09-12T15:13:20.411Z,30.90
2018-09-12T15:15:49.018Z,30.60
2018-09-12T15:18:17.546Z,30.60
2018-09-12T15:20:46.317Z,30.70
2018-09-12T15:23:14.811Z,30.70
2018-09-12T15:25:43.964Z,30.60
2018-09-12T15:28:12.941Z,30.60
2018-09-12T15:30:41.605Z,30.60
2018-09-12T15:33:13.941Z,30.60
2018-09-12T15:35:43.026Z,30.50
2018-09-12T15:38:11.712Z,30.40
2018-09-12T15:40:40.451Z,30.40
2018-09-12T15:43:09.072Z,30.30
2018-09-12T15:45:38.221Z,30.30
2018-09-12T15:48:07.765Z,30.10
2018-09-12T15:50:36.629Z,30.10
2018-09-12T15:53:06.470Z,29.90
2018-09-12T15:55:35.525Z,29.90
2018-09-12T15:58:04.657Z,29.80
2018-09-12T16:00:33.181Z,29.80
2018-09-12T16:03:01.797Z,29.70
2018-09-12T16:05:30.952Z,29.60
2018-09-12T16:07:59.669Z,29.60
2018-09-12T16:10:28.320Z,29.60
2018-09-12T16:12:56.941Z,29.60
2018-09-12T16:15:25.430Z,29.60
2018-09-12T16:17:54.236Z,29.50
2018-09-12T16:20:22.733Z,29.50
2018-09-12T16:22:51.224Z,29.30
2018-09-12T16:25:19.757Z,29.20
2018-09-12T16:27:48.932Z,29.20
2018-09-12T16:30:17.862Z,29.10
2018-09-12T16:33:01.646Z,29.10
2018-09-12T16:35:31.256Z,28.90
2018-09-12T16:38:00.610Z,28.90
2018-09-12T16:40:29.408Z,28.90
2018-09-12T16:42:58.909Z,28.90
2018-09-12T16:45:27.686Z,28.80
2018-09-12T16:47:57.627Z,28.80
2018-09-12T16:50:26.838Z,28.80
2018-09-12T16:53:04.397Z,28.70
2018-09-12T16:55:33.263Z,28.70
2018-09-12T16:58:05.034Z,28.60
2018-09-12T17:00:37.949Z,28.60
2018-09-12T17:03:07.275Z,28.50
2018-09-12T17:05:36.285Z,28.50
2018-09-12T17:08:05.789Z,28.30
2018-09-12T17:10:36.766Z,28.20
2018-09-12T17:13:05.986Z,28.10
2018-09-12T17:15:35.596Z,28.00
2018-09-12T17:18:05.128Z,27.90
2018-09-12T17:20:34.542Z,27.80
2018-09-12T17:23:06.240Z,27.70
2018-09-12T17:25:45.658Z,27.50
2018-09-12T17:28:21.219Z,27.30
2018-09-12T17:31:00.174Z,27.20
2018-09-12T17:33:30.614Z,27.10
2018-09-12T17:36:06.741Z,27.00
2018-09-12T17:38:35.507Z,26.90
2018-09-12T17:41:04.132Z,26.80
2018-09-12T17:43:32.993Z,26.70
2018-09-12T17:46:01.510Z,26.60
2018-09-12T17:48:31.133Z,26.50
2018-09-12T17:51:06.529Z,26.40
2018-09-12T17:53:35.761Z,26.30
2018-09-12T17:56:05.093Z,26.10
2018-09-12T17:58:34.809Z,25.90
2018-09-12T18:01:03.877Z,25.80
2018-09-12T18:03:32.944Z,25.60
2018-09-12T18:06:02.187Z,25.50
2018-09-12T18:08:30.773Z,25.40
2018-09-12T18:10:59.324Z,25.40
2018-09-12T18:13:27.844Z,25.30
2018-09-12T18:16:01.176Z,25.20
2018-09-12T18:18:30.419Z,25.00
2018-09-12T18:20:58.954Z,24.90
2018-09-12T18:23:47.541Z,24.80
2018-09-12T18:26:16.593Z,24.70
2018-09-12T18:28:45.388Z,24.60
2018-09-12T18:31:14.740Z,24.40
2018-09-12T18:33:44.211Z,24.20
2018-09-12T18:36:12.882Z,24.20
2018-09-12T18:38:41.677Z,24.20
2018-09-12T18:41:13.240Z,24.10
2018-09-12T18:43:42.438Z,24.00
2018-09-12T18:46:11.042Z,24.00
2018-09-12T18:48:40.174Z,24.00
2018-09-12T18:51:11.017Z,23.90
2018-09-12T18:53:40.423Z,23.90
2018-09-12T18:56:09.460Z,23.80
2018-09-12T18:58:38.161Z,23.80
2018-09-12T19:01:07.291Z,23.80
2018-09-12T19:03:35.784Z,23.80
2018-09-12T19:06:04.494Z,23.70
2018-09-12T19:08:33.090Z,23.70
2018-09-12T19:11:02.141Z,23.60
2018-09-12T19:13:30.936Z,23.60
2018-09-12T19:16:00.356Z,23.50
2018-09-12T19:18:29.496Z,23.40
2018-09-12T19:20:58.289Z,23.30
2018-09-12T19:23:26.984Z,23.40
2018-09-12T19:25:55.797Z,23.30
2018-09-12T19:28:24.562Z,23.40
2018-09-12T19:30:54.190Z,23.30
2018-09-12T19:33:23.094Z,23.30
2018-09-12T19:35:51.668Z,23.20
2018-09-12T19:38:20.409Z,23.10
2018-09-12T19:40:49.097Z,23.20
2018-09-12T19:43:17.626Z,23.20
2018-09-12T19:45:46.581Z,23.20
2018-09-12T19:48:15.851Z,23.00
2018-09-12T19:50:44.380Z,23.00
2018-09-12T19:53:13.962Z,23.00
2018-09-12T19:55:42.687Z,23.00
2018-09-12T19:58:12.152Z,23.00
2018-09-12T20:00:41.697Z,22.90
2018-09-12T20:03:10.807Z,22.90
2018-09-12T20:05:40.020Z,22.90
2018-09-12T20:08:08.665Z,22.90
2018-09-12T20:10:37.575Z,23.00
2018-09-12T20:13:06.482Z,23.00
2018-09-12T20:15:36.198Z,23.00
2018-09-12T20:18:04.830Z,23.00
2018-09-12T20:20:33.770Z,23.10
2018-09-12T20:23:02.705Z,23.00
2018-09-12T20:25:31.436Z,23.00
2018-09-12T20:28:00.075Z,23.00
2018-09-12T20:30:28.679Z,22.90
2018-09-12T20:32:57.352Z,23.00
2018-09-12T20:35:26.208Z,23.00
2018-09-12T20:37:55.494Z,23.00
2018-09-12T20:40:25.120Z,23.10
2018-09-12T20:42:53.728Z,23.20
2018-09-12T20:45:22.441Z,23.30
2018-09-12T20:47:51.755Z,23.40
2018-09-12T20:50:21.494Z,23.40
2018-09-12T20:52:50.257Z,23.30
2018-09-12T20:55:19.546Z,23.30
2018-09-12T20:57:49.127Z,23.20
2018-09-12T21:00:17.758Z,23.20
2018-09-12T21:02:46.570Z,23.00
2018-09-12T21:05:15.290Z,22.90
2018-09-12T21:13:31.395Z,22.60
2018-09-12T21:16:01.041Z,22.50
2018-09-12T21:18:34.014Z,22.50
2018-09-12T21:21:03.068Z,22.50
2018-09-12T21:23:31.647Z,22.40
2018-09-12T21:26:00.211Z,22.40
2018-09-12T21:28:35.882Z,22.30
2018-09-12T21:31:05.128Z,22.20
2018-09-12T21:33:33.731Z,22.10
2018-09-12T21:36:02.662Z,22.00
2018-09-12T21:38:32.219Z,21.90
2018-09-12T21:41:00.989Z,21.90
2018-09-12T21:43:29.808Z,21.90
2018-09-12T21:45:58.666Z,22.00
2018-09-12T21:48:27.283Z,21.90
2018-09-12T21:50:55.842Z,21.90
2018-09-12T21:53:24.459Z,21.90
2018-09-12T21:55:53.216Z,21.90
2018-09-12T21:58:21.842Z,21.80
2018-09-12T22:00:51.128Z,21.70
2018-09-12T22:03:19.990Z,21.40
2018-09-12T22:05:48.702Z,21.20
2018-09-12T22:08:17.627Z,21.10
2018-09-12T22:10:46.301Z,21.10
2018-09-12T22:13:15.487Z,21.20
2018-09-12T22:15:44.632Z,21.20
2018-09-12T22:18:13.864Z,21.30
2018-09-12T22:20:42.868Z,21.30
2018-09-12T22:23:12.250Z,21.30
2018-09-12T22:25:41.046Z,21.30
2018-09-12T22:28:10.168Z,21.30
2018-09-12T22:30:43.856Z,21.30
2018-09-12T22:33:12.578Z,21.20
2018-09-12T22:35:41.834Z,21.20
2018-09-12T22:38:10.759Z,21.10
2018-09-12T22:40:41.124Z,21.10
2018-09-12T22:43:10.743Z,20.90
2018-09-12T22:45:39.814Z,20.80
2018-09-12T22:48:08.976Z,20.70
2018-09-12T22:50:37.874Z,20.70
2018-09-12T22:53:07.000Z,20.70
2018-09-12T22:55:40.373Z,20.70
2018-09-12T22:58:09.574Z,20.70
2018-09-12T23:00:38.730Z,20.70
2018-09-12T23:03:07.743Z,20.70
2018-09-12T23:05:36.721Z,20.60
2018-09-12T23:08:05.717Z,20.60
2018-09-12T23:10:34.214Z,20.60
2018-09-12T23:13:04.026Z,20.60
2018-09-12T23:15:33.590Z,20.60
2018-09-12T23:18:02.898Z,20.60
2018-09-12T23:20:32.507Z,20.50
2018-09-12T23:23:01.600Z,20.50
2018-09-12T23:25:30.929Z,20.50
2018-09-12T23:27:59.857Z,20.40
2018-09-12T23:30:29.647Z,20.30
2018-09-12T23:32:59.355Z,20.20
2018-09-12T23:35:28.985Z,20.10
2018-09-12T23:37:57.967Z,20.00
2018-09-12T23:40:27.243Z,19.90
2018-09-12T23:42:55.965Z,20.00
2018-09-12T23:45:24.813Z,20.00
2018-09-12T23:47:53.729Z,20.10
2018-09-12T23:50:22.844Z,20.00
2018-09-12T23:52:51.307Z,20.10
2018-09-12T23:55:20.639Z,20.10
2018-09-12T23:57:49.512Z,20.00
